Time;durP1;ratioP1;P1;durP2;ratioP2;P2;SDS_P1;SDS_P2;PMS_P1;PMS_P2;Temp;Humidity;BMP_temperature;BMP_pressure;BME280_temperature;BME280_humidity;BME280_pressure;Samples;Min_cycle;Max_cycle;Signal;HPM_P1;HPM_P2
2023/08/29 00:00:24;;;;;;;5.28;2.45;;;18.70;1.00;;;;;;5022621;28;20038;-81
2023/08/29 00:02:49;;;;;;;5.05;2.50;;;17.60;1.00;;;;;;5028980;28;20037;-81
2023/08/29 00:05:15;;;;;;;10.20;3.22;;;18.50;1.00;;;;;;5031608;28;20061;-81
2023/08/29 00:07:41;;;;;;;5.47;2.53;;;18.60;1.00;;;;;;5012557;28;20098;-81
2023/08/29 00:10:08;;;;;;;6.90;2.88;;;17.80;1.00;;;;;;5030397;28;20049;-81
2023/08/29 00:12:33;;;;;;;5.45;2.58;;;17.80;1.00;;;;;;5029834;28;20514;-81
2023/08/29 00:15:00;;;;;;;5.43;2.80;;;17.80;1.00;;;;;;5015069;28;20057;-82
2023/08/29 00:17:26;;;;;;;6.93;2.85;;;18.60;1.00;;;;;;5010165;28;20080;-80
2023/08/29 00:19:55;;;;;;;5.35;2.70;;;18.50;1.00;;;;;;5029362;28;20052;-80
2023/08/29 00:22:21;;;;;;;6.40;3.22;;;18.70;1.00;;;;;;5031692;28;20042;-80
2023/08/29 00:24:52;;;;;;;8.02;3.05;;;18.10;1.00;;;;;;5023881;28;20040;-79
2023/08/29 00:27:21;;;;;;;6.57;3.22;;;18.00;1.00;;;;;;5035916;28;20053;-80
2023/08/29 00:29:47;;;;;;;6.30;3.20;;;17.80;1.00;;;;;;5016421;28;20037;-80
2023/08/29 00:32:13;;;;;;;5.68;3.20;;;18.60;1.00;;;;;;5017514;28;20134;-80
2023/08/29 00:34:39;;;;;;;7.60;3.60;;;17.50;1.00;;;;;;5029759;28;20041;-80
2023/08/29 00:37:05;;;;;;;7.95;4.30;;;17.70;1.00;;;;;;5032297;28;20029;-80
2023/08/29 00:39:31;;;;;;;7.80;3.20;;;18.40;1.00;;;;;;5013901;28;20037;-80
2023/08/29 00:41:57;;;;;;;7.22;3.63;;;18.70;1.00;;;;;;5029282;28;20499;-80
2023/08/29 00:44:23;;;;;;;7.15;3.20;;;17.80;1.00;;;;;;5027952;28;20101;-80
2023/08/29 00:46:49;;;;;;;7.28;3.80;;;18.50;1.00;;;;;;5030365;28;20071;-80
2023/08/29 00:49:18;;;;;;;6.90;3.70;;;18.40;1.00;;;;;;5019473;28;20037;-81
2023/08/29 00:51:45;;;;;;;7.90;3.45;;;18.30;5.80;;;;;;5025497;28;20084;-80
2023/08/29 00:54:14;;;;;;;7.95;3.05;;;18.20;4.90;;;;;;5027755;28;20029;-80
2023/08/29 00:56:40;;;;;;;6.07;3.13;;;18.50;14.30;;;;;;5026436;28;20120;-81
2023/08/29 00:59:05;;;;;;;7.05;3.50;;;18.60;9.50;;;;;;5021905;28;20052;-80
2023/08/29 01:01:32;;;;;;;6.97;3.42;;;18.30;10.20;;;;;;5008346;28;20041;-80
2023/08/29 01:03:58;;;;;;;6.65;3.67;;;18.80;8.90;;;;;;5025554;28;20041;-79
2023/08/29 01:06:24;;;;;;;6.70;3.50;;;17.40;12.40;;;;;;5020477;28;20051;-80
2023/08/29 01:08:51;;;;;;;7.07;3.30;;;18.20;13.70;;;;;;5007301;28;20044;-80
2023/08/29 01:11:26;;;;;;;6.47;3.13;;;17.80;13.50;;;;;;5012483;28;20068;-80
2023/08/29 01:14:10;;;;;;;6.78;3.72;;;18.50;1.00;;;;;;5021533;28;20038;-80
2023/08/29 01:16:40;;;;;;;6.55;3.40;;;18.60;1.00;;;;;;5032209;28;20040;-80
2023/08/29 01:19:13;;;;;;;6.45;3.15;;;17.50;15.90;;;;;;5027601;28;20046;-80
2023/08/29 01:21:47;;;;;;;6.97;3.20;;;18.10;17.70;;;;;;5032508;28;20057;-80
2023/08/29 01:24:44;;;;;;;6.85;3.88;;;18.40;1.70;;;;;;5023309;28;20042;-80
2023/08/29 01:27:10;;;;;;;5.40;2.90;;;18.40;2.20;;;;;;5027172;28;20407;-80
2023/08/29 01:29:36;;;;;;;7.38;3.55;;;18.00;15.20;;;;;;5021728;28;20038;-80
2023/08/29 01:32:03;;;;;;;6.15;3.30;;;18.50;15.80;;;;;;5021412;28;20092;-80
2023/08/29 01:34:29;;;;;;;6.10;3.70;;;17.80;14.30;;;;;;5023465;28;20046;-81
2023/08/29 01:36:55;;;;;;;5.68;3.10;;;18.30;16.00;;;;;;5029782;28;20025;-81
2023/08/29 01:39:21;;;;;;;6.50;3.40;;;18.00;13.60;;;;;;5029184;28;20044;-81
2023/08/29 01:41:46;;;;;;;5.93;2.85;;;17.30;15.30;;;;;;5026263;28;20120;-80
2023/08/29 01:44:12;;;;;;;6.65;3.40;;;18.10;14.50;;;;;;5011025;28;20049;-80
2023/08/29 01:46:38;;;;;;;5.60;2.58;;;18.40;15.80;;;;;;5007839;28;20124;-80
2023/08/29 01:49:05;;;;;;;6.03;3.05;;;17.50;13.30;;;;;;5022106;28;20034;-80
2023/08/29 01:51:31;;;;;;;6.28;2.90;;;17.60;15.60;;;;;;5031913;28;20128;-80
2023/08/29 01:53:57;;;;;;;5.20;2.90;;;18.40;14.70;;;;;;5011870;28;20574;-80
2023/08/29 01:56:27;;;;;;;5.72;2.92;;;17.10;13.30;;;;;;5029617;28;20128;-80
2023/08/29 01:58:57;;;;;;;5.45;2.83;;;18.50;15.00;;;;;;5027576;28;20403;-80
2023/08/29 02:01:24;;;;;;;5.63;3.10;;;17.20;17.50;;;;;;5003765;28;20041;-80
2023/08/29 02:03:50;;;;;;;7.30;3.22;;;17.10;15.10;;;;;;5022367;28;20116;-80
2023/08/29 02:06:16;;;;;;;6.82;3.20;;;17.10;15.60;;;;;;5025845;28;20037;-81
2023/08/29 02:08:41;;;;;;;6.82;3.25;;;18.20;16.50;;;;;;5041861;28;20034;-80
2023/08/29 02:11:07;;;;;;;5.85;2.95;;;17.70;17.60;;;;;;5032711;28;20061;-80
2023/08/29 02:13:33;;;;;;;5.35;2.97;;;17.50;17.20;;;;;;5029113;28;20051;-81
2023/08/29 02:16:02;;;;;;;6.07;2.90;;;17.50;18.40;;;;;;5023765;28;20037;-80
2023/08/29 02:18:28;;;;;;;6.43;3.13;;;18.30;21.50;;;;;;5041957;28;20096;-81
2023/08/29 02:20:54;;;;;;;5.63;2.67;;;18.10;21.60;;;;;;5035373;28;20032;-80
2023/08/29 02:23:20;;;;;;;6.45;3.10;;;17.60;22.00;;;;;;5033663;28;20061;-80
2023/08/29 02:25:46;;;;;;;5.45;2.95;;;17.40;22.80;;;;;;5033744;28;20126;-80
2023/08/29 02:28:12;;;;;;;5.60;2.78;;;17.30;20.50;;;;;;5024525;28;20038;-81
2023/08/29 02:30:38;;;;;;;7.68;3.55;;;18.30;17.00;;;;;;5027304;28;20109;-81
2023/08/29 02:33:04;;;;;;;6.10;3.28;;;17.90;19.10;;;;;;5034325;28;20083;-81
2023/08/29 02:35:30;;;;;;;5.90;2.85;;;18.30;17.10;;;;;;5016118;28;20045;-80
2023/08/29 02:37:55;;;;;;;7.15;3.40;;;17.40;19.20;;;;;;5032594;28;20065;-80
2023/08/29 02:40:22;;;;;;;5.88;2.92;;;17.10;21.70;;;;;;5030361;28;20061;-80
2023/08/29 02:42:48;;;;;;;5.55;3.30;;;17.40;23.90;;;;;;5013197;28;20077;-80
2023/08/29 02:45:14;;;;;;;5.90;2.95;;;18.30;19.10;;;;;;5039383;28;20096;-80
2023/08/29 02:47:39;;;;;;;5.70;2.92;;;17.10;23.70;;;;;;5041016;28;20049;-81
2023/08/29 02:50:06;;;;;;;5.95;2.63;;;17.10;21.00;;;;;;5016228;28;20049;-80
2023/08/29 02:52:32;;;;;;;5.82;2.65;;;17.00;17.00;;;;;;5035649;28;20053;-81
2023/08/29 02:54:58;;;;;;;4.32;1.85;;;17.50;11.80;;;;;;5033189;28;20037;-81
2023/08/29 02:57:24;;;;;;;4.05;1.50;;;18.20;9.20;;;;;;5036149;28;20033;-81
2023/08/29 02:59:49;;;;;;;3.50;1.42;;;16.80;1.00;;;;;;5035814;28;20037;-80
2023/08/29 03:02:15;;;;;;;3.83;1.40;;;17.60;1.00;;;;;;5030736;28;20107;-80
2023/08/29 03:04:42;;;;;;;3.95;1.38;;;18.00;1.00;;;;;;5034859;28;20057;-82
2023/08/29 03:07:08;;;;;;;3.88;1.40;;;17.80;1.00;;;;;;5036388;28;20068;-80
2023/08/29 03:09:33;;;;;;;3.53;1.23;;;17.00;1.00;;;;;;5020000;28;20046;-80
2023/08/29 03:11:59;;;;;;;3.17;1.15;;;17.80;1.00;;;;;;5036392;28;20625;-81
2023/08/29 03:14:26;;;;;;;2.70;1.00;;;18.70;1.00;;;;;;5028370;28;20041;-81
2023/08/29 03:16:52;;;;;;;2.75;1.05;;;17.00;1.00;;;;;;5016026;28;20041;-82
2023/08/29 03:19:18;;;;;;;2.58;1.00;;;18.20;1.00;;;;;;5029191;28;20029;-81
2023/08/29 03:21:47;;;;;;;2.88;1.00;;;17.20;1.00;;;;;;5032987;28;20569;-81
2023/08/29 03:24:12;;;;;;;3.35;1.20;;;17.00;1.00;;;;;;5033081;28;20041;-82
2023/08/29 03:26:38;;;;;;;3.40;1.17;;;17.40;1.00;;;;;;5037052;28;20554;-81
2023/08/29 03:29:04;;;;;;;3.03;1.20;;;17.10;1.00;;;;;;5035326;28;20413;-82
2023/08/29 03:31:29;;;;;;;2.40;0.90;;;17.60;1.00;;;;;;5033971;28;20418;-82
2023/08/29 03:33:55;;;;;;;3.38;1.30;;;16.70;1.00;;;;;;5032088;28;20036;-81
2023/08/29 03:36:23;;;;;;;4.07;1.40;;;16.90;1.00;;;;;;5030920;28;20038;-81
2023/08/29 03:38:49;;;;;;;3.67;1.20;;;17.20;1.00;;;;;;5021177;28;20111;-82
2023/08/29 03:41:15;;;;;;;2.58;1.05;;;17.00;1.00;;;;;;5021025;28;20057;-81
2023/08/29 03:43:40;;;;;;;3.25;1.20;;;16.70;1.00;;;;;;5029291;28;20506;-81
2023/08/29 03:46:10;;;;;;;3.50;1.35;;;17.10;1.00;;;;;;5024066;28;20052;-81
2023/08/29 03:48:36;;;;;;;4.72;1.60;;;16.90;1.00;;;;;;5025735;28;20052;-81
2023/08/29 03:51:06;;;;;;;2.75;1.00;;;16.70;1.00;;;;;;5017323;28;20041;-81
2023/08/29 03:53:36;;;;;;;2.85;0.90;;;17.00;1.00;;;;;;5026274;28;20529;-81
2023/08/29 03:56:03;;;;;;;2.80;0.98;;;17.00;1.00;;;;;;5019902;28;20407;-81
2023/08/29 03:58:30;;;;;;;2.53;1.00;;;16.90;1.00;;;;;;5025231;28;20102;-81
2023/08/29 04:00:56;;;;;;;3.03;1.10;;;16.70;1.00;;;;;;5023754;28;20606;-81
2023/08/29 04:03:22;;;;;;;3.00;1.10;;;16.60;1.00;;;;;;5030493;28;20053;-81
2023/08/29 04:05:48;;;;;;;3.28;1.17;;;16.80;1.00;;;;;;5013224;28;20136;-81
2023/08/29 04:08:13;;;;;;;3.63;1.20;;;16.80;1.00;;;;;;5009705;28;20468;-81
2023/08/29 04:10:40;;;;;;;4.63;1.40;;;16.70;1.00;;;;;;5025164;28;20111;-81
2023/08/29 04:13:06;;;;;;;3.50;1.20;;;17.40;1.00;;;;;;5027915;28;20048;-81
2023/08/29 04:15:36;;;;;;;4.00;1.35;;;16.80;1.00;;;;;;5033564;28;20594;-80
2023/08/29 04:18:05;;;;;;;4.57;1.60;;;16.50;1.00;;;;;;5026408;28;20542;-81
2023/08/29 04:20:31;;;;;;;3.67;1.40;;;16.80;1.00;;;;;;5019466;28;20056;-81
2023/08/29 04:22:58;;;;;;;3.53;1.10;;;16.40;1.00;;;;;;5002542;28;20034;-81
2023/08/29 04:25:26;;;;;;;4.72;1.50;;;17.00;1.00;;;;;;5023997;28;20057;-80
2023/08/29 04:27:53;;;;;;;4.68;1.35;;;16.40;1.00;;;;;;5024095;28;20068;-80
2023/08/29 04:30:18;;;;;;;3.88;1.35;;;16.30;1.00;;;;;;4996541;28;20427;-81
2023/08/29 04:32:46;;;;;;;5.10;1.63;;;16.20;1.00;;;;;;5003998;28;20054;-81
2023/08/29 04:35:12;;;;;;;5.03;1.58;;;16.00;1.00;;;;;;5007084;28;20033;-81
2023/08/29 04:37:38;;;;;;;6.03;1.65;;;16.90;1.00;;;;;;5020722;28;20100;-81
2023/08/29 04:40:06;;;;;;;4.88;1.83;;;17.50;1.00;;;;;;5023187;28;20117;-81
2023/08/29 04:42:33;;;;;;;5.00;1.80;;;17.10;1.00;;;;;;5020223;28;20117;-81
2023/08/29 04:45:04;;;;;;;5.88;1.85;;;16.90;1.00;;;;;;5015810;28;20048;-82
2023/08/29 04:47:30;;;;;;;5.65;2.15;;;16.90;1.00;;;;;;5020002;28;20407;-82
2023/08/29 04:49:56;;;;;;;6.28;2.75;;;16.90;1.00;;;;;;5025375;28;20041;-81
2023/08/29 04:52:22;;;;;;;9.23;3.35;;;16.40;1.00;;;;;;5027050;28;20546;-79
2023/08/29 04:54:47;;;;;;;6.40;2.20;;;17.20;1.00;;;;;;5033905;28;20041;-80
2023/08/29 04:57:13;;;;;;;8.98;2.72;;;16.40;1.00;;;;;;5024314;28;20040;-80
2023/08/29 04:59:42;;;;;;;6.88;2.92;;;17.90;1.00;;;;;;5027560;28;20049;-80
2023/08/29 05:02:08;;;;;;;7.60;3.00;;;16.40;1.00;;;;;;5023591;28;20033;-80
2023/08/29 05:04:34;;;;;;;6.07;2.10;;;16.90;1.00;;;;;;5031061;28;20033;-80
2023/08/29 05:06:59;;;;;;;9.57;3.00;;;16.60;1.00;;;;;;5028525;28;20100;-80
2023/08/29 05:09:25;;;;;;;9.52;3.00;;;17.00;1.00;;;;;;5028201;28;20190;-80
2023/08/29 05:11:51;;;;;;;13.63;3.03;;;16.90;1.00;;;;;;5007997;28;20037;-80
2023/08/29 05:14:16;;;;;;;8.45;2.72;;;17.30;3.80;;;;;;5014650;28;20041;-79
2023/08/29 05:16:42;;;;;;;8.15;2.75;;;16.60;6.40;;;;;;5025947;28;20037;-79
2023/08/29 05:19:08;;;;;;;8.77;3.13;;;16.60;15.10;;;;;;5032447;28;20495;-79
2023/08/29 05:21:34;;;;;;;5.65;2.55;;;16.40;18.70;;;;;;5035706;28;20402;-80
2023/08/29 05:24:01;;;;;;;7.70;2.78;;;16.70;32.20;;;;;;5035983;28;20048;-78
2023/08/29 05:26:27;;;;;;;6.57;2.33;;;16.80;44.00;;;;;;5034312;28;20034;-78
2023/08/29 05:28:53;;;;;;;5.95;2.70;;;16.60;50.20;;;;;;5037516;28;20037;-79
2023/08/29 05:31:18;;;;;;;8.13;3.05;;;17.10;60.90;;;;;;5036249;28;20123;-79
2023/08/29 05:33:44;;;;;;;7.03;2.45;;;17.20;62.00;;;;;;5036363;28;20491;-78
2023/08/29 05:36:10;;;;;;;5.28;2.45;;;16.90;76.00;;;;;;5022042;28;20033;-78
2023/08/29 05:38:35;;;;;;;6.68;2.80;;;17.00;82.30;;;;;;5036225;28;20037;-79
2023/08/29 05:41:03;;;;;;;6.80;2.58;;;16.70;92.10;;;;;;5035117;28;20029;-79
2023/08/29 05:43:28;;;;;;;6.15;2.25;;;17.00;93.70;;;;;;5038115;28;20483;-79
2023/08/29 05:45:55;;;;;;;7.75;2.63;;;17.10;95.10;;;;;;5019809;28;20037;-79
2023/08/29 05:48:21;;;;;;;5.88;2.30;;;17.20;96.60;;;;;;5039818;28;20037;-80
2023/08/29 05:50:50;;;;;;;5.10;2.60;;;16.80;99.90;;;;;;5017888;28;20141;-79
2023/08/29 05:53:17;;;;;;;6.75;3.13;;;16.80;99.90;;;;;;5035243;28;20056;-79
2023/08/29 05:55:42;;;;;;;5.35;2.83;;;16.60;99.90;;;;;;5020126;28;20033;-79
2023/08/29 05:58:08;;;;;;;5.60;2.80;;;17.20;99.90;;;;;;5038106;28;20091;-79
2023/08/29 06:00:35;;;;;;;6.28;3.05;;;17.20;99.90;;;;;;5041802;28;20098;-80
2023/08/29 06:03:04;;;;;;;5.68;2.45;;;17.40;99.90;;;;;;5018179;28;20284;-80
2023/08/29 06:05:32;;;;;;;5.95;2.78;;;18.00;99.90;;;;;;5030945;28;20102;-79
2023/08/29 06:08:01;;;;;;;5.53;2.25;;;17.20;99.90;;;;;;5018239;28;20037;-80
2023/08/29 06:10:28;;;;;;;5.63;2.28;;;17.90;99.90;;;;;;5037256;28;20052;-79
2023/08/29 06:12:54;;;;;;;4.53;2.10;;;17.70;99.90;;;;;;5024426;28;20069;-80
2023/08/29 06:15:19;;;;;;;4.40;1.70;;;17.60;99.90;;;;;;5029911;28;20041;-79
2023/08/29 06:17:45;;;;;;;4.65;1.73;;;17.00;99.90;;;;;;5033852;28;20061;-80
2023/08/29 06:20:11;;;;;;;5.70;1.65;;;17.30;99.90;;;;;;4998646;28;20034;-78
2023/08/29 06:22:37;;;;;;;6.82;1.75;;;17.20;99.90;;;;;;5028661;28;20041;-78
2023/08/29 06:25:04;;;;;;;3.65;1.30;;;18.10;99.90;;;;;;5009701;28;20045;-78
2023/08/29 06:27:30;;;;;;;3.80;1.45;;;18.20;99.90;;;;;;5015673;28;20088;-78
2023/08/29 06:29:55;;;;;;;4.00;1.30;;;17.90;99.90;;;;;;5015811;28;20046;-77
2023/08/29 06:32:21;;;;;;;3.72;1.48;;;17.20;99.90;;;;;;5016719;28;20071;-78
2023/08/29 06:34:47;;;;;;;5.13;1.60;;;18.10;99.90;;;;;;5027489;28;20045;-78
2023/08/29 06:37:13;;;;;;;3.83;1.50;;;17.50;99.90;;;;;;5032292;28;20042;-78
2023/08/29 06:39:39;;;;;;;3.83;1.27;;;17.10;99.90;;;;;;5024980;28;20044;-79
2023/08/29 06:42:05;;;;;;;3.15;1.00;;;18.30;99.90;;;;;;5016056;28;20042;-77
2023/08/29 06:44:31;;;;;;;4.70;1.58;;;18.10;99.90;;;;;;5024094;28;20053;-77
2023/08/29 06:46:56;;;;;;;3.50;1.48;;;17.40;99.90;;;;;;5018709;28;20057;-79
2023/08/29 06:49:22;;;;;;;3.47;1.30;;;17.30;99.90;;;;;;5025461;28;20049;-77
2023/08/29 06:51:49;;;;;;;3.95;1.30;;;18.90;99.90;;;;;;5015221;28;20470;-78
2023/08/29 06:54:16;;;;;;;4.85;1.42;;;18.00;99.90;;;;;;5015516;28;20048;-78
2023/08/29 06:56:41;;;;;;;7.15;2.08;;;18.00;99.90;;;;;;5018920;28;20045;-78
2023/08/29 06:59:07;;;;;;;6.72;2.10;;;18.20;99.90;;;;;;5020480;28;20030;-78
2023/08/29 07:01:33;;;;;;;4.85;1.63;;;18.20;99.90;;;;;;5009998;28;20117;-78
2023/08/29 07:04:00;;;;;;;6.47;1.98;;;18.30;99.90;;;;;;5028608;28;20087;-78
2023/08/29 07:06:26;;;;;;;6.53;1.90;;;18.60;99.90;;;;;;5024637;28;20132;-79
2023/08/29 07:08:51;;;;;;;7.25;1.77;;;18.30;99.90;;;;;;5006252;28;20061;-78
2023/08/29 07:11:17;;;;;;;8.38;1.95;;;18.50;99.90;;;;;;5025207;28;20077;-78
2023/08/29 07:13:46;;;;;;;8.80;2.17;;;17.40;99.90;;;;;;5024811;28;20494;-79
2023/08/29 07:16:11;;;;;;;8.98;2.22;;;19.70;99.90;;;;;;5007535;28;20029;-80
2023/08/29 07:18:37;;;;;;;6.43;2.00;;;17.50;99.90;;;;;;5027351;28;20048;-79
2023/08/29 07:21:03;;;;;;;5.07;1.67;;;18.60;99.90;;;;;;5010591;28;20044;-79
2023/08/29 07:23:29;;;;;;;5.97;2.20;;;18.30;99.90;;;;;;5029116;28;20029;-79
2023/08/29 07:25:55;;;;;;;3.90;1.27;;;18.30;99.90;;;;;;5012870;28;20045;-79
2023/08/29 07:28:21;;;;;;;3.67;1.33;;;18.10;99.90;;;;;;5025843;28;20059;-79
2023/08/29 07:30:48;;;;;;;4.82;1.13;;;18.10;99.90;;;;;;5014104;28;20047;-79
2023/08/29 07:33:14;;;;;;;5.15;1.50;;;18.20;99.90;;;;;;5006677;28;20038;-78
2023/08/29 07:35:41;;;;;;;4.03;1.30;;;18.20;99.90;;;;;;5022684;28;20120;-78
2023/08/29 07:38:07;;;;;;;4.40;1.40;;;18.40;99.90;;;;;;5024571;28;20045;-78
2023/08/29 07:40:36;;;;;;;4.78;1.50;;;17.70;99.90;;;;;;5021665;28;20128;-78
2023/08/29 07:43:05;;;;;;;4.00;1.35;;;17.80;99.90;;;;;;5004677;28;20094;-79
2023/08/29 07:45:31;;;;;;;3.33;1.10;;;18.40;99.90;;;;;;5020635;28;20033;-78
2023/08/29 07:47:57;;;;;;;5.13;1.52;;;17.50;99.90;;;;;;5018484;28;20057;-78
2023/08/29 07:50:23;;;;;;;5.07;1.60;;;17.40;99.90;;;;;;5024184;28;20045;-78
2023/08/29 07:52:48;;;;;;;4.32;1.30;;;18.20;99.90;;;;;;5026997;28;20102;-79
2023/08/29 07:55:14;;;;;;;4.32;1.27;;;17.60;99.90;;;;;;5022853;28;20073;-78
2023/08/29 07:57:40;;;;;;;3.80;1.30;;;18.80;99.90;;;;;;5019772;28;20040;-79
2023/08/29 08:00:10;;;;;;;6.22;1.90;;;18.50;99.90;;;;;;5024974;28;20459;-77
2023/08/29 08:02:39;;;;;;;4.07;1.50;;;18.00;99.90;;;;;;5003820;28;20113;-79
2023/08/29 08:05:16;;;;;;;4.03;1.50;;;18.50;99.90;;;;;;5002554;28;20617;-78
2023/08/29 08:07:43;;;;;;;5.13;1.95;;;17.60;99.90;;;;;;5019333;28;20874;-79
2023/08/29 08:10:10;;;;;;;6.10;1.88;;;18.80;99.90;;;;;;5018753;28;20077;-78
2023/08/29 08:12:38;;;;;;;4.00;1.55;;;18.60;99.90;;;;;;5018859;28;20046;-78
2023/08/29 08:15:05;;;;;;;4.00;1.38;;;18.30;99.90;;;;;;5025281;28;20051;-79
2023/08/29 08:17:31;;;;;;;4.30;1.38;;;17.90;99.90;;;;;;5010252;28;20438;-79
2023/08/29 08:19:57;;;;;;;3.85;1.40;;;18.50;99.90;;;;;;5023950;28;20088;-78
2023/08/29 08:22:23;;;;;;;5.55;1.38;;;18.50;99.90;;;;;;5021295;28;20041;-79
2023/08/29 08:24:52;;;;;;;6.18;1.83;;;18.60;99.90;;;;;;5016455;28;20112;-78
2023/08/29 08:27:18;;;;;;;4.07;1.35;;;19.00;99.90;;;;;;5017372;28;20076;-78
2023/08/29 08:29:44;;;;;;;4.43;1.48;;;18.60;99.90;;;;;;5020784;28;20045;-78
2023/08/29 08:32:10;;;;;;;4.68;1.95;;;18.60;99.90;;;;;;4996884;28;20141;-80
2023/08/29 08:34:36;;;;;;;4.47;1.40;;;18.00;99.90;;;;;;5022253;28;20034;-79
2023/08/29 08:37:02;;;;;;;3.47;1.27;;;18.60;99.90;;;;;;5016950;28;20067;-76
2023/08/29 08:39:31;;;;;;;4.20;1.27;;;17.60;99.90;;;;;;5002731;28;20569;-77
2023/08/29 08:41:57;;;;;;;4.20;1.10;;;17.10;99.90;;;;;;5017061;28;20076;-78
2023/08/29 08:44:25;;;;;;;3.45;1.30;;;18.80;99.90;;;;;;5018319;28;20073;-77
2023/08/29 08:46:52;;;;;;;4.32;1.50;;;18.90;99.90;;;;;;5020240;28;20438;-77
2023/08/29 08:49:19;;;;;;;4.20;1.55;;;18.30;99.90;;;;;;5022779;28;20464;-78
2023/08/29 08:51:46;;;;;;;5.53;1.95;;;18.50;99.90;;;;;;5017546;28;20449;-77
2023/08/29 08:54:13;;;;;;;6.38;1.65;;;18.80;99.90;;;;;;5022190;28;20076;-78
2023/08/29 08:56:40;;;;;;;4.32;1.70;;;19.00;99.90;;;;;;5021340;28;20069;-78
2023/08/29 08:59:06;;;;;;;5.00;1.80;;;18.30;99.90;;;;;;5008983;28;20044;-77
2023/08/29 09:01:33;;;;;;;4.18;1.38;;;18.10;99.90;;;;;;5022650;28;20423;-77
2023/08/29 09:03:59;;;;;;;4.32;1.60;;;18.50;99.90;;;;;;5014432;28;20045;-77
2023/08/29 09:06:25;;;;;;;4.10;1.52;;;18.50;99.90;;;;;;5001691;28;20462;-78
2023/08/29 09:08:51;;;;;;;3.97;1.55;;;18.50;99.90;;;;;;5027034;28;20064;-78
2023/08/29 09:11:20;;;;;;;3.75;1.50;;;18.60;99.90;;;;;;5028755;28;20037;-78
2023/08/29 09:13:46;;;;;;;3.60;1.30;;;18.60;99.90;;;;;;5012714;28;20029;-78
2023/08/29 09:16:13;;;;;;;3.40;1.40;;;18.30;99.90;;;;;;5029596;28;20656;-79
2023/08/29 09:18:43;;;;;;;4.30;1.58;;;18.60;99.90;;;;;;5004474;28;20407;-79
2023/08/29 09:21:23;;;;;;;6.30;2.60;;;18.70;99.90;;;;;;5006438;28;20488;-79
2023/08/29 09:23:50;;;;;;;3.85;1.55;;;18.60;99.90;;;;;;5021446;28;20053;-78
2023/08/29 09:26:16;;;;;;;5.82;2.58;;;18.70;99.90;;;;;;5022106;28;20425;-79
2023/08/29 09:28:42;;;;;;;3.92;1.45;;;19.00;99.90;;;;;;5025902;28;20072;-78
2023/08/29 09:31:09;;;;;;;4.57;1.63;;;18.70;99.90;;;;;;5001035;28;20399;-78
2023/08/29 09:33:37;;;;;;;4.25;1.60;;;18.80;99.90;;;;;;5023624;28;20125;-78
2023/08/29 09:36:06;;;;;;;4.25;1.40;;;18.80;99.90;;;;;;5024726;28;20044;-78
2023/08/29 09:38:33;;;;;;;5.95;1.50;;;18.40;99.90;;;;;;5007123;28;20038;-78
2023/08/29 09:40:59;;;;;;;6.53;1.70;;;18.50;99.90;;;;;;5017427;28;20034;-79
2023/08/29 09:43:27;;;;;;;5.03;1.67;;;18.90;99.90;;;;;;5005033;28;20053;-78
2023/08/29 09:45:54;;;;;;;4.25;1.60;;;18.60;99.90;;;;;;5002200;28;20715;-78
2023/08/29 09:48:20;;;;;;;3.47;1.33;;;18.90;99.90;;;;;;5020686;28;20223;-78
2023/08/29 09:50:47;;;;;;;4.05;1.70;;;18.70;99.90;;;;;;5003020;28;20128;-78
2023/08/29 09:53:19;;;;;;;4.40;1.50;;;18.50;99.90;;;;;;5022537;28;20049;-78
2023/08/29 09:55:48;;;;;;;4.40;1.67;;;18.60;99.90;;;;;;5009172;28;20121;-78
2023/08/29 09:58:16;;;;;;;3.63;1.42;;;18.60;99.90;;;;;;5027504;28;20042;-78
2023/08/29 10:00:43;;;;;;;4.22;1.60;;;18.10;99.90;;;;;;5026052;28;20399;-78
2023/08/29 10:03:10;;;;;;;4.13;1.30;;;18.70;99.90;;;;;;5027192;28;20168;-79
2023/08/29 10:05:45;;;;;;;3.25;1.23;;;18.60;99.90;;;;;;5027987;28;20033;-79
2023/08/29 10:08:31;;;;;;;5.10;1.45;;;19.00;99.90;;;;;;5007710;28;20073;-79
2023/08/29 10:10:59;;;;;;;5.35;1.58;;;18.90;99.90;;;;;;5031091;28;20514;-79
2023/08/29 10:13:25;;;;;;;3.97;1.42;;;18.80;99.90;;;;;;5010488;28;20556;-79
2023/08/29 10:15:51;;;;;;;5.03;1.67;;;18.10;99.90;;;;;;5028871;28;20037;-79
2023/08/29 10:18:18;;;;;;;4.65;1.52;;;18.50;99.90;;;;;;5013522;28;20041;-79
2023/08/29 10:20:45;;;;;;;3.72;1.38;;;19.00;99.90;;;;;;5033781;28;20424;-79
2023/08/29 10:23:15;;;;;;;3.83;1.60;;;18.70;99.90;;;;;;5029362;28;20414;-77
2023/08/29 10:25:41;;;;;;;4.32;1.50;;;18.90;99.90;;;;;;5027141;28;20446;-77
2023/08/29 10:28:10;;;;;;;4.03;1.58;;;18.60;99.90;;;;;;5030498;28;20045;-78
2023/08/29 10:30:40;;;;;;;4.20;2.13;;;18.80;99.90;;;;;;5029422;28;20045;-78
2023/08/29 10:33:07;;;;;;;3.35;1.35;;;18.80;99.90;;;;;;5024502;28;20439;-79
2023/08/29 10:35:33;;;;;;;4.25;1.48;;;18.50;98.90;;;;;;5028813;28;20034;-79
2023/08/29 10:38:15;;;;;;;4.13;1.50;;;18.40;95.10;;;;;;5013761;28;20038;-79
2023/08/29 10:40:43;;;;;;;4.97;1.67;;;19.00;74.30;;;;;;5008810;28;20069;-79
2023/08/29 10:43:18;;;;;;;4.07;1.65;;;18.80;84.30;;;;;;5029987;28;20081;-79
2023/08/29 10:45:57;;;;;;;4.00;1.48;;;18.10;78.30;;;;;;5016430;28;20046;-79
2023/08/29 10:48:30;;;;;;;4.25;1.58;;;18.80;72.80;;;;;;5026685;28;20052;-79
2023/08/29 10:51:10;;;;;;;5.20;1.70;;;18.60;58.10;;;;;;5022975;28;20073;-79
2023/08/29 10:53:45;;;;;;;5.03;1.80;;;18.70;28.90;;;;;;5005546;28;20503;-78
2023/08/29 10:56:12;;;;;;;3.97;1.40;;;18.40;36.00;;;;;;5001087;28;20045;-79
2023/08/29 10:58:40;;;;;;;5.03;1.60;;;18.70;24.10;;;;;;5006300;28;20045;-79
2023/08/29 11:01:26;;;;;;;5.20;1.50;;;18.90;15.60;;;;;;5009596;28;20490;-79
2023/08/29 11:03:53;;;;;;;4.25;1.58;;;18.80;13.30;;;;;;4994469;28;20125;-79
2023/08/29 11:06:21;;;;;;;4.03;1.40;;;18.70;5.30;;;;;;5026921;28;20403;-78
2023/08/29 11:08:47;;;;;;;4.22;1.80;;;18.90;3.20;;;;;;5027478;28;20033;-79
2023/08/29 11:11:16;;;;;;;4.47;1.60;;;18.70;1.00;;;;;;5027123;28;20517;-79
2023/08/29 11:13:56;;;;;;;4.38;1.50;;;18.20;1.00;;;;;;5007101;28;20121;-79
2023/08/29 11:16:23;;;;;;;4.03;1.60;;;18.90;1.00;;;;;;5020579;28;20135;-79
2023/08/29 11:19:20;;;;;;;3.70;1.27;;;18.20;1.00;;;;;;5003410;28;20029;-79
2023/08/29 11:21:48;;;;;;;4.30;1.55;;;18.80;1.00;;;;;;5009920;28;20120;-78
2023/08/29 11:24:14;;;;;;;4.60;1.90;;;18.80;1.00;;;;;;5028347;28;20506;-78
2023/08/29 11:26:43;;;;;;;5.03;2.05;;;18.00;1.00;;;;;;5029378;28;20124;-79
2023/08/29 11:29:08;;;;;;;5.57;1.63;;;18.10;1.00;;;;;;5029327;28;20675;-78
2023/08/29 11:31:45;;;;;;;4.53;1.80;;;18.80;1.00;;;;;;5008995;28;20104;-79
2023/08/29 11:34:21;;;;;;;4.18;1.67;;;18.80;1.00;;;;;;5017815;28;20038;-77
2023/08/29 11:36:48;;;;;;;5.50;1.95;;;19.10;1.00;;;;;;5011453;28;20112;-78
2023/08/29 11:39:20;;;;;;;3.83;1.42;;;18.70;1.00;;;;;;5021421;28;20376;-78
2023/08/29 11:41:46;;;;;;;4.25;1.52;;;18.90;1.00;;;;;;5005303;28;20507;-78
2023/08/29 11:44:12;;;;;;;3.78;1.65;;;18.90;1.00;;;;;;5020410;28;20045;-77
2023/08/29 11:46:38;;;;;;;5.38;1.80;;;19.20;1.00;;;;;;5023575;28;20046;-78
2023/08/29 11:49:16;;;;;;;4.97;1.90;;;19.00;1.00;;;;;;5020477;28;20068;-78
2023/08/29 11:51:43;;;;;;;5.63;2.00;;;18.40;1.00;;;;;;5022569;28;20034;-79
2023/08/29 11:54:41;;;;;;;4.88;1.73;;;18.80;1.00;;;;;;5014654;28;20111;-78
2023/08/29 11:57:10;;;;;;;4.28;1.58;;;19.10;1.00;;;;;;5004065;28;20095;-77
2023/08/29 11:59:39;;;;;;;4.20;1.73;;;19.10;1.00;;;;;;5020343;28;20499;-78
2023/08/29 12:02:06;;;;;;;4.38;1.50;;;18.90;1.00;;;;;;5016897;28;20508;-78
2023/08/29 12:04:32;;;;;;;4.22;1.70;;;18.90;1.00;;;;;;5022208;28;20039;-79
2023/08/29 12:07:15;;;;;;;4.40;1.60;;;19.00;1.00;;;;;;5017853;28;20120;-78
2023/08/29 12:09:42;;;;;;;4.63;1.90;;;19.30;1.00;;;;;;5020367;28;20045;-78
2023/08/29 12:12:26;;;;;;;4.47;1.70;;;19.00;1.00;;;;;;5006758;28;20045;-78
2023/08/29 12:14:52;;;;;;;5.80;1.90;;;19.00;1.00;;;;;;5013842;28;20038;-78
2023/08/29 12:17:19;;;;;;;5.47;1.80;;;19.00;1.00;;;;;;5007595;28;20056;-79
2023/08/29 12:19:48;;;;;;;4.38;1.73;;;19.00;1.00;;;;;;5002591;28;20049;-79
2023/08/29 12:22:19;;;;;;;4.93;2.28;;;19.00;1.00;;;;;;5023695;28;20120;-78
2023/08/29 12:24:54;;;;;;;4.68;1.88;;;18.90;1.00;;;;;;5001682;28;20064;-79
2023/08/29 12:27:23;;;;;;;4.57;1.63;;;19.50;1.00;;;;;;5028654;28;20048;-79
2023/08/29 12:29:48;;;;;;;4.38;1.92;;;19.10;1.00;;;;;;5022429;28;20041;-79
2023/08/29 12:32:16;;;;;;;4.57;1.90;;;18.80;1.00;;;;;;5005362;28;20038;-79
2023/08/29 12:34:43;;;;;;;4.13;1.80;;;19.20;1.00;;;;;;5024592;28;20033;-78
2023/08/29 12:37:11;;;;;;;4.68;1.80;;;19.00;1.00;;;;;;5008245;28;20349;-79
2023/08/29 12:39:37;;;;;;;4.78;1.90;;;19.20;1.00;;;;;;5006519;28;20080;-78
2023/08/29 12:42:04;;;;;;;4.00;1.52;;;19.10;1.00;;;;;;5020816;28;20041;-78
2023/08/29 12:44:30;;;;;;;7.22;2.13;;;19.10;1.00;;;;;;5008185;28;20048;-78
2023/08/29 12:46:55;;;;;;;4.82;1.63;;;20.00;1.00;;;;;;5024611;28;20116;-78
2023/08/29 12:49:21;;;;;;;4.50;1.88;;;19.20;1.00;;;;;;5010241;28;20065;-78
2023/08/29 12:51:46;;;;;;;4.00;1.55;;;18.70;1.00;;;;;;5015674;28;20106;-78